Главная страница
METAR-TAF:

METAR-TAF

Аэропорты :

Запорожье, Украина

широта: 47-52-02N, долгота: 035-18-59E, высота над уровнем моря: 114 м

Текущие метеонаблюдения

Эта сводка был подготовлена 20 минут назад, в 11:00 UTC
Штиль
Температура 21°C
Влажность 43%
Давление 1015 hPa
Видимость 10 км и более
Отдельные облака на высоте 3300 фута
Рассеянная облачность на высоте 10000 фута

METAR: UKDE 261100Z 00000MPS 9999 SCT033 BKN100 21/08 Q1015 R20/CLRD70 NOSIG

Время: 14:20 (11:20 UTC)

Прогноз

Эта сводка был подготовлена 3 часа и 15 минут назад, в 08:05 UTC
Прогноз действительный с 26-го 09 UTC до 26-го 18 UTC
Ветер 4 Узел переменных направлений
Видимость 10 км и более
Рассеянная облачность на высоте 3000 фута
временами
С 26-го 09 UTC до 26-го 15 UTC
Ветер 12 Узел от юго-западный
Отдельные облака на высоте 3000 фута, Кучево-дождевые.

TAF: UKDE 260805Z 2609/2618 VRB02MPS 9999 BKN030 TEMPO 2609/2615 23006MPS SCT030CB

Метеонаблюдения и прогнозы для более 4000 аэропортов (сводки METAR и TAF).

Имеющиеся станции представлены на карте желтыми и красными точками.

Чтобы увидеть название станции, наведите на нее мышь.

Затем щелкните, чтобы увидеть метеонаблюдения и метеопрогнозы.

Управление картой: чтобы увеличить масштаб, щелкните зеленые кнопки с черным крестиком; чтобы уменьшить масштаб, щелкните зеленую кнопку с тире; для просмотра соседних карт щелкайте зеленые стрелки.


METAR-TAF: